香港国際空港 の過去48時間の天気

香港国際空港 (Hong Kong Inter-National Airport)

現在時刻: 5/26 09:25 HKT (5/26 01:25 UTC) 以下の時間は現地時間です。

過去48時間のMETAR気象情報
時間 風向 風速(m/s) 視程 気温(℃) 湿度(%) 気圧(hPa) 天気現象
26 09:00 4 10km以上 29 74 1005
26 08:30 4 10km以上 28 79 1005 弱いしゅう雨
26 08:00 3 10km以上 27 84 1005
26 07:30 3 10km以上 27 84 1005
26 07:00 2 10km以上 27 84 1005
26 06:30 東南東 4 10km以上 26 89 1005
26 06:00 東北東 3 10km以上 26 89 1005
26 05:30 3 10km以上 26 89 1005
26 05:00 3 10km以上 26 89 1005
26 04:30 4 10km以上 26 89 1005
26 04:00 東北東 3 10km以上 26 89 1005
26 03:30 3 10km以上 26 89 1004
26 03:00 3 10km以上 26 89 1004
26 02:30 3 10km以上 26 89 1005
26 02:00 2 10km以上 26 89 1005
26 01:30 2 10km以上 26 89 1005
26 01:00 3 10km以上 26 89 1006
26 00:30 3 10km以上 26 89 1006
26 00:00 4 10km以上 26 89 1007
25 23:30 5 10km以上 26 89 1007
25 23:00 4 10km以上 26 89 1007
25 22:30 5 10km以上 26 89 1007
25 22:00 5 10km以上 26 89 1007
25 21:30 5 10km以上 26 89 1007
25 21:00 東南東 5 10km以上 26 84 1007
25 20:30 5 10km以上 26 84 1007
25 20:00 5 10km以上 27 79 1006
25 19:30 5 10km以上 27 79 1006
25 19:00 4 10km以上 27 79 1005
25 18:30 東北東 3 10km以上 27 79 1005
25 18:00 3 10km以上 27 79 1005
25 17:30 南西 3 10km以上 28 74 1005
25 17:00 4 10km以上 28 79 1005
25 16:30 北東 3 10km以上 29 74 1005
25 16:00 西 2 10km以上 29 74 1005
25 15:30 西南西 3 10km以上 28 79 1006 弱いしゅう雨
25 15:00 南西 5 10km以上 27 84 1006 弱いしゅう雨
25 14:30 3 10km以上 28 79 1006
25 14:00 東北東 4 10km以上 28 79 1006
25 13:30 北東 4 10km以上 28 79 1007
25 13:00 北東 3 10km以上 27 89 1007
25 12:30 東北東 3 7000m 26 94 1008 弱いしゅう雨
25 12:00 4 3700m 26 94 1008 しゅう雨
25 11:49 5 3500m 26 89 1009 しゅう雨
25 11:30 4 10km以上 27 84 1009 弱いしゅう雨
25 11:00 4 10km以上 27 79 1009 弱いしゅう雨
25 10:30 4 10km以上 27 79 1009
25 10:00 5 10km以上 27 79 1009
25 09:30 5 10km以上 27 79 1009
25 09:00 5 10km以上 26 84 1009
25 08:30 5 10km以上 26 84 1009
25 08:00 5 10km以上 25 89 1009
25 07:30 5 10km以上 25 89 1009
25 07:00 5 10km以上 25 89 1009 弱い雨
25 06:30 5 10km以上 25 89 1008 弱い雨
25 06:00 5 10km以上 25 89 1008
25 05:30 4 10km以上 25 89 1008
25 05:00 5 10km以上 25 89 1008
25 04:30 6 10km以上 25 83 1008
25 04:00 東南東 6 10km以上 25 83 1008
VHHH 260100Z 10008KT 9999 FEW008 SCT025 29/24 Q1005 NOSIG
VHHH 260030Z 10008KT 9999 -SHRA FEW008 SCT025 28/24 Q1005 NOSIG
VHHH 260000Z 08005KT 9999 FEW008 SCT025 27/24 Q1005 NOSIG
VHHH 252330Z 08005KT 050V110 9999 FEW008 SCT025 27/24 Q1005 NOSIG
VHHH 252300Z 10004KT 9999 FEW008 SCT025 27/24 Q1005 NOSIG
VHHH 252230Z 11007KT 9999 FEW008 SCT025 26/24 Q1005 NOSIG
VHHH 252200Z 07006KT 9999 FEW008 SCT028 26/24 Q1005 NOSIG
VHHH 252130Z 09006KT 9999 FEW008 SCT028 26/24 Q1005 NOSIG
VHHH 252100Z 09006KT 9999 FEW015 SCT030 26/24 Q1005 NOSIG
VHHH 252030Z 10007KT 9999 FEW015 SCT030 26/24 Q1005 NOSIG
VHHH 252000Z 07006KT 9999 FEW015 SCT030 26/24 Q1005 NOSIG
VHHH 251930Z 08006KT 9999 FEW015 SCT030 26/24 Q1004 NOSIG
VHHH 251900Z 09006KT 9999 FEW015 SCT030 26/24 Q1004 NOSIG
VHHH 251830Z 10006KT 9999 FEW015 SCT030 26/24 Q1005 NOSIG
VHHH 251800Z 09004KT 9999 FEW015 SCT030 26/24 Q1005 NOSIG
VHHH 251730Z 08004KT 030V100 9999 FEW015 SCT030 26/24 Q1005 NOSIG
VHHH 251700Z 08006KT 9999 FEW008 SCT025 26/24 Q1006 NOSIG
VHHH 251630Z 10006KT 9999 FEW008 SCT025 26/24 Q1006 NOSIG
VHHH 251600Z 10007KT 080V140 9999 FEW008 SCT025 26/24 Q1007 NOSIG
VHHH 251530Z 10009KT 9999 FEW008 26/24 Q1007 NOSIG
VHHH 251500Z 10008KT 9999 FEW008 26/24 Q1007 NOSIG
VHHH 251430Z 09009KT 9999 FEW008 26/24 Q1007 NOSIG
VHHH 251400Z 10009KT 9999 FEW008 26/24 Q1007 NOSIG
VHHH 251330Z 09009KT 9999 FEW008 26/24 Q1007 NOSIG
VHHH 251300Z 11009KT 080V140 9999 FEW008 26/23 Q1007 NOSIG
VHHH 251230Z 10010KT 9999 FEW008 26/23 Q1007 NOSIG
VHHH 251200Z 10010KT 9999 FEW008 27/23 Q1006 NOSIG
VHHH 251130Z 10009KT 080V170 9999 FEW008 27/23 Q1006 NOSIG
VHHH 251100Z 09008KT 9999 FEW008 27/23 Q1005 NOSIG
VHHH 251030Z 07005KT 9999 FEW010 27/23 Q1005 NOSIG
VHHH 251000Z 18005KT 110V260 9999 FEW010 27/23 Q1005 NOSIG
VHHH 250930Z 23006KT 9999 FEW010 28/23 Q1005 NOSIG
VHHH 250900Z 10007KT 070V130 9999 FEW010 28/24 Q1005 NOSIG
VHHH 250830Z 05006KT 350V080 9999 FEW010 29/24 Q1005 NOSIG
VHHH 250800Z 26004KT 210V320 9999 FEW010 29/24 Q1005 NOSIG
VHHH 250730Z 24006KT 9999 -SHRA FEW008 SCT030 28/24 Q1006 NOSIG
VHHH 250700Z 22010KT 9999 -SHRA FEW008 SCT015 27/24 Q1006 NOSIG
VHHH 250630Z VRB06KT 9999 FEW008 28/24 Q1006 NOSIG
VHHH 250600Z 06007KT 9999 FEW008 28/24 Q1006 NOSIG
VHHH 250530Z 04008KT 9999 FEW008 SCT025 28/24 Q1007 NOSIG
VHHH 250500Z 05005KT 020V090 9999 FEW008 SCT025 27/25 Q1007 NOSIG
VHHH 250430Z 06005KT 7000 -SHRA FEW008 SCT025 26/25 Q1008 RERA NOSIG
VHHH 250400Z 10008KT 3700 SHRA FEW008 SCT025 26/25 Q1008 NOSIG
VHHH 250349Z 10009KT 3500 SHRA FEW008 SCT025 26/24 Q1009 NOSIG
VHHH 250330Z 09007KT 9999 -SHRA FEW008 SCT025 27/24 Q1009 TEMPO 4000 SHRA FEW010CB SCT020
VHHH 250300Z 08008KT 9999 -SHRA FEW008 SCT025 27/23 Q1009 NOSIG
VHHH 250230Z 08008KT 9999 FEW008 SCT025 27/23 Q1009 NOSIG
VHHH 250200Z 09009KT 9999 FEW008 SCT025 27/23 Q1009 NOSIG
VHHH 250130Z 08009KT 9999 FEW008 SCT025 27/23 Q1009 NOSIG
VHHH 250100Z 10010KT 9999 FEW008 SCT025 26/23 Q1009 NOSIG
VHHH 250030Z 10009KT 9999 FEW008 SCT025 26/23 Q1009 NOSIG
VHHH 250000Z 09010KT 9999 FEW008 SCT025 25/23 Q1009 NOSIG
VHHH 242330Z 09009KT 9999 FEW008 SCT025 25/23 Q1009 NOSIG
VHHH 242300Z 09010KT 9999 -RA FEW008 SCT025 25/23 Q1009 NOSIG
VHHH 242230Z 08010KT 9999 -RA FEW008 SCT025 25/23 Q1008 NOSIG
VHHH 242200Z 09010KT 9999 FEW008 SCT025 25/23 Q1008 NOSIG
VHHH 242130Z 09008KT 9999 FEW008 SCT025 25/23 Q1008 NOSIG
VHHH 242100Z 09010KT 9999 FEW008 SCT025 25/23 Q1008 NOSIG
VHHH 242030Z 10011KT 9999 FEW008 SCT025 25/22 Q1008 NOSIG
VHHH 242000Z 11012KT 9999 FEW008 SCT025 25/22 Q1008 NOSIG